Terminal Aerodrome Forecast
Issued by NWS Grand Forks, ND

Home | Current Version | Previous Version | Text Only | Print | Product List | Glossary Off
Versions: 1 2 3 4 5 6 7 8 9 10 11 12 13 14 15 16 17 18

000
FTUS43 KFGF 281500 AAB
TAFGFK
TAF AMD
KGFK 281554Z 2816/2912 14009KT P6SM OVC035
      TEMPO 2816/2817 1SM -SN BKN015
     FM282100 13009KT P6SM OVC030
      TEMPO 2821/2823 1 1/2SM -SN OVC015
     FM290300 14012KT P6SM OVC050=

USA.gov is the U.S. government's official web portal to all federal, state and local government web resources and services.